This is the latest recevied weather packets stored in our database for station/object KF6ILA. If no packets are shown the sender has not sent any weather packets the latest 10 day(s).
| Time | Temp. | Humidity | Pressure | Rain* | Wind** | Luminosity | Snow |
|---|---|---|---|---|---|---|---|
| 1788134921 | 26.67° C | 33% | 1014.3 hPa | 0 mm | - | 406 W/m² | - |
| 1788134624 | 26.67° C | 33% | 1014.4 hPa | 0 mm | - | 425 W/m² | - |
| 1788134327 | 26.67° C | 32% | 1014.5 hPa | 0 mm | - | 443 W/m² | - |
| 1788134030 | 27.22° C | 32% | 1014.6 hPa | 0 mm | - | 466 W/m² | - |
| 1788133733 | 27.22° C | 31% | 1014.6 hPa | 0 mm | - | 480 W/m² | - |
| 1788133436 | 27.22° C | 32% | 1014.7 hPa | 0 mm | - | 492 W/m² | - |
| 1788133139 | 27.22° C | 31% | 1014.8 hPa | 0 mm | - | 513 W/m² | - |
| 1788132842 | 27.22° C | 30% | 1014.7 hPa | 0 mm | - | 531 W/m² | - |
| 1788132248 | 27.78° C | 31% | 1014.7 hPa | 0 mm | - | 561 W/m² | - |
| 1788131951 | 27.78° C | 32% | 1014.5 hPa | 0 mm | - | 578 W/m² | - |
| 1788131654 | 27.78° C | 31% | 1014.6 hPa | 0 mm | - | 594 W/m² | - |
| 1788131357 | 27.78° C | 31% | 1014.7 hPa | 0 mm | - | 612 W/m² | - |
| 1788130763 | 28.33° C | 32% | 1014.9 hPa | 0 mm | - | 642 W/m² | - |
| 1788130466 | 28.33° C | 32% | 1015 hPa | 0 mm | - | 656 W/m² | - |
| 1788130169 | 28.33° C | 31% | 1014.9 hPa | 0 mm | - | 671 W/m² | - |
| 1788128981 | 28.33° C | 32% | 1015.2 hPa | 0 mm | - | 729 W/m² | - |
| 1788128684 | 28.33° C | 32% | 1015.2 hPa | 0 mm | - | 742 W/m² | - |
| 1788128387 | 28.89° C | 32% | 1015.1 hPa | 0 mm | - | 756 W/m² | - |
| 1788128090 | 28.89° C | 32% | 1015.1 hPa | 0 mm | - | 763 W/m² | - |
| 1788127793 | 28.89° C | 32% | 1015.1 hPa | 0 mm | - | 775 W/m² | - |
| 1788127496 | 29.44° C | 33% | 1015.2 hPa | 0 mm | - | 784 W/m² | - |
| 1788127199 | 30° C | 32% | 1015.2 hPa | 0 mm | - | 796 W/m² | - |
| 1788126902 | 29.44° C | 33% | 1015.2 hPa | 0 mm | - | 809 W/m² | - |
| 1788126308 | 28.89° C | 34% | 1015.3 hPa | 0 mm | - | 833 W/m² | - |
| 1788126011 | 28.89° C | 34% | 1015.4 hPa | 0 mm | - | 840 W/m² | - |
* Rain latest hour (hover to see other rain measurements)
** Current wind speed in m/s (hover to see current wind gust speed)